»·PEaware :: UAL2296 KABQ-KDEN

UAL2296 :: KABQ-KDEN

FLIGHT INFORMATION

Flight Status: Arrived
Operator:
United Airlines
More flights by this operator :: More flights under this callsign
Pilot: John C. (18682)
Aircraft: AIRBUS A320
(A320)
More flights by this aircraft type
Origin: KABQ Albuquerque Intl Sunport
United States
Destination: KDEN Denver Intl
United States
More flights between these airports :: More routes between these airports
Route: +ATOMK3 ATOMK BRAZO LDORA2
File this flight plan on PilotEdge
Remarks:
Altitude:
(Current/Filed)
37,000ft
Speed:
(Current/Filed)
430kts
Departed: 30-Apr-18 02:51 PM
Arrived: 30-Apr-18 03:44 PM
Distance/Time
Traveled:
304nm/0:53
Distance/Time
To Go:
Arrived

Flight Plot

Page will automatically refresh every two minutes.

Flight plan parsing failed; only flown route is shown


Map Options




Map Legend


Flown Route
Filed Route
Departure Airport
Arrival Airport
Navaid (VOR, NDB)
Fix

Horizontal Profiles

Position Reports

Time Latitude Longitude Heading Altitude Ground
Speed
30-Apr-18 14:11 35.047897 -106.618145 179 5310ft 0kts
30-Apr-18 14:12 35.047897 -106.618145 179 5310ft 0kts
30-Apr-18 14:13 35.047897 -106.618145 179 5310ft 0kts
30-Apr-18 14:14 35.047897 -106.618145 179 5310ft 0kts
30-Apr-18 14:15 35.047897 -106.618145 179 5310ft 0kts
30-Apr-18 14:16 35.047897 -106.618145 179 5310ft 0kts
30-Apr-18 14:17 35.047897 -106.618145 179 5310ft 0kts
30-Apr-18 14:18 35.047897 -106.618145 179 5310ft 0kts
30-Apr-18 14:19 35.047897 -106.618145 179 5310ft 0kts
30-Apr-18 14:20 35.047897 -106.618145 179 5310ft 0kts
30-Apr-18 14:21 35.047897 -106.618145 179 5310ft 0kts
30-Apr-18 14:22 35.047897 -106.618145 179 5310ft 0kts
30-Apr-18 14:23 35.047897 -106.618145 179 5310ft 0kts
30-Apr-18 14:24 35.047897 -106.618145 179 5310ft 0kts
30-Apr-18 14:25 35.047897 -106.618145 179 5310ft 0kts
30-Apr-18 14:26 35.047897 -106.618145 179 5310ft 0kts
30-Apr-18 14:27 35.047897 -106.618145 179 5310ft 0kts
30-Apr-18 14:28 35.047897 -106.618145 179 5310ft 0kts
30-Apr-18 14:29 35.047897 -106.618145 179 5310ft 0kts
30-Apr-18 14:30 35.047897 -106.618145 179 5310ft 0kts
30-Apr-18 14:31 35.047896 -106.618145 179 5310ft 0kts
30-Apr-18 14:32 35.047897 -106.618145 179 5310ft 0kts
30-Apr-18 14:33 35.047897 -106.618145 179 5310ft 0kts
30-Apr-18 14:34 35.047897 -106.618145 179 5310ft 0kts
30-Apr-18 14:35 35.047897 -106.618145 179 5310ft 0kts
30-Apr-18 14:36 35.047897 -106.618145 179 5310ft 0kts
30-Apr-18 14:37 35.047897 -106.618145 179 5310ft 0kts
30-Apr-18 14:38 35.047897 -106.618145 179 5310ft 0kts
30-Apr-18 14:39 35.048260 -106.618149 192 5308ft 2kts
30-Apr-18 14:40 35.048424 -106.618167 269 5308ft 4kts
30-Apr-18 14:41 35.048425 -106.618338 269 5307ft 0kts
30-Apr-18 14:42 35.048425 -106.618338 269 5307ft 0kts
30-Apr-18 14:43 35.046910 -106.619582 180 5309ft 12kts
30-Apr-18 14:45 35.046635 -106.619587 180 5309ft 0kts
30-Apr-18 14:46 35.045578 -106.617960 90 5315ft 15kts
30-Apr-18 14:47 35.044733 -106.613753 182 5318ft 9kts
30-Apr-18 14:48 35.042439 -106.612075 89 5318ft 16kts
30-Apr-18 14:49 35.042429 -106.608183 89 5321ft 0kts
30-Apr-18 14:50 35.041801 -106.607051 194 5321ft 11kts
30-Apr-18 14:51 35.023616 -106.629046 231 6471ft 175kts
30-Apr-18 14:52 35.035596 -106.692844 288 9349ft 243kts
30-Apr-18 14:53 35.070635 -106.776480 318 12055ft 309kts
30-Apr-18 14:54 35.157259 -106.802888 345 15392ft 337kts
30-Apr-18 14:55 35.252854 -106.823527 345 17774ft 375kts
30-Apr-18 14:56 35.358099 -106.846469 344 20275ft 394kts
30-Apr-18 14:57 35.467732 -106.867679 347 22656ft 408kts
30-Apr-18 14:58 35.581753 -106.885202 346 24798ft 420kts
30-Apr-18 14:59 35.698629 -106.903216 346 26752ft 430kts
30-Apr-18 15:00 35.818319 -106.921715 345 28552ft 439kts
30-Apr-18 15:01 35.940051 -106.939581 351 30207ft 450kts
30-Apr-18 15:02 36.066827 -106.906034 9 31461ft 479kts
30-Apr-18 15:02 36.173484 -106.870348 9 32360ft 488kts
30-Apr-18 15:04 36.325816 -106.819264 9 33943ft 490kts
30-Apr-18 15:05 36.457460 -106.774943 9 35262ft 490kts
30-Apr-18 15:05 36.558998 -106.740658 9 36326ft 487kts
30-Apr-18 15:06 36.689479 -106.696470 9 37070ft 486kts
30-Apr-18 15:07 36.819479 -106.652326 8 37076ft 486kts
30-Apr-18 15:08 36.950395 -106.613019 7 37077ft 485kts
30-Apr-18 15:09 37.078247 -106.574592 8 37061ft 487kts
30-Apr-18 15:11 37.230447 -106.528674 8 37028ft 489kts
30-Apr-18 15:11 37.340191 -106.495448 9 37043ft 490kts
30-Apr-18 15:12 37.472706 -106.455196 8 37057ft 492kts
30-Apr-18 15:13 37.605092 -106.414838 9 37056ft 492kts
30-Apr-18 15:14 37.737447 -106.374343 9 37032ft 492kts
30-Apr-18 15:15 37.869371 -106.333825 9 37015ft 491kts
30-Apr-18 15:16 38.001874 -106.292983 9 37000ft 491kts
30-Apr-18 15:17 38.130160 -106.238069 21 37003ft 496kts
30-Apr-18 15:18 38.255981 -106.167377 21 36744ft 495kts
30-Apr-18 15:19 38.380930 -106.096965 21 35447ft 491kts
30-Apr-18 15:20 38.504539 -106.027054 20 33387ft 483kts
30-Apr-18 15:21 38.625453 -105.958405 20 31412ft 472kts
30-Apr-18 15:22 38.743359 -105.891207 21 29441ft 460kts
30-Apr-18 15:23 38.855573 -105.818534 41 27441ft 453kts
30-Apr-18 15:24 38.943881 -105.706630 44 25466ft 442kts
30-Apr-18 15:25 39.029338 -105.597538 44 23541ft 428kts
30-Apr-18 15:26 39.110965 -105.493001 43 21618ft 416kts
30-Apr-18 15:27 39.191103 -105.390274 43 19710ft 402kts
30-Apr-18 15:28 39.260648 -105.287621 74 18118ft 365kts
30-Apr-18 15:29 39.284170 -105.163885 77 16515ft 354kts
30-Apr-18 15:30 39.306830 -105.042945 79 14923ft 343kts
30-Apr-18 15:31 39.327860 -104.930562 79 14245ft 301kts
30-Apr-18 15:32 39.348920 -104.833449 74 13632ft 269kts
30-Apr-18 15:33 39.373576 -104.743798 71 12841ft 264kts
30-Apr-18 15:34 39.417339 -104.672470 31 12431ft 265kts
30-Apr-18 15:35 39.488214 -104.664232 1 12061ft 248kts
30-Apr-18 15:36 39.551322 -104.664099 1 10866ft 219kts
30-Apr-18 15:37 39.609176 -104.663140 2 9666ft 206kts
30-Apr-18 15:38 39.665174 -104.662548 2 8626ft 197kts
30-Apr-18 15:39 39.717669 -104.661892 3 7619ft 185kts
30-Apr-18 15:40 39.763031 -104.661369 4 6726ft 145kts
30-Apr-18 15:41 39.802477 -104.660871 4 5989ft 145kts
30-Apr-18 15:42 39.839934 -104.660169 358 5443ft 102kts
30-Apr-18 15:43 39.848665 -104.661148 331 5443ft 0kts
30-Apr-18 15:44 39.850774 -104.662279 357 5443ft 15kts
30-Apr-18 15:45 39.856121 -104.662214 359 5443ft 20kts
30-Apr-18 15:46 39.860156 -104.663322 271 5443ft 14kts
30-Apr-18 15:47 39.860604 -104.668719 270 5443ft 16kts
30-Apr-18 15:48 39.859393 -104.669868 179 5443ft 3kts
30-Apr-18 15:49 39.859244 -104.669867 179 5443ft 0kts
30-Apr-18 15:50 39.859244 -104.669867 179 5443ft 0kts
30-Apr-18 15:51 39.859244 -104.669867 179 5443ft 0kts

Navigation Log

Ident Type
Flight plan parsing failed, navigation log unavailable